K3CHZ Weather Reports


Display with metric or nautical units.
time (UTC)temp
F
wind
direction
speed
MPH
gust
MPH
rain 1hr
in
rain 24hr
in
rain mn
in
humidity
%
barometer
mb
20200406154005 61 2 7.0 8.0 0.00 0.00 0.00 43 1018.2
20200406153006 61 320 5.0 8.0 0.00 0.00 0.00 48 1018.2
20200406152004 60 338 5.0 8.0 0.00 0.00 0.00 49 1018.2
20200406150005 60 347 5.0 10.0 0.00 0.00 0.00 52 1018.3
20200406145503 60 326 13.0 14.0 0.00 0.00 0.00 54 1018.3
20200406145004 59 3 6.0 10.0 0.00 0.00 0.00 51 1018.2
20200406144503 59 358 5.0 6.0 0.00 0.00 0.00 53 1018.2
20200406144005 59 357 2.0 3.0 0.00 0.00 0.00 54 1018.2
20200406143504 58 3 5.0 8.0 0.00 0.00 0.00 56 1018.2
20200406143004 58 358 7.0 8.0 0.00 0.00 0.00 57 1018.2
20200406142004 58 354 7.0 8.0 0.00 0.00 0.00 55 1018.0
20200406141504 57 2 9.0 10.0 0.00 0.00 0.00 53 1018.0
20200406141004 57 357 7.0 10.0 0.00 0.00 0.00 54 1018.0
20200406140504 56 332 4.0 6.0 0.00 0.00 0.00 56 1018.0
20200406135503 56 355 6.0 10.0 0.00 0.00 0.00 57 1018.0
20200406134504 55 358 10.0 10.0 0.00 0.00 0.00 64 1018.0
20200406134004 55 357 11.0 12.0 0.00 0.00 0.00 64 1018.0
20200406133503 55 327 6.0 6.0 0.00 0.00 0.00 67 1018.0
20200406133005 54 0 7.0 6.0 0.00 0.00 0.00 67 1018.0
20200406132503 54 4 10.0 10.0 0.00 0.00 0.00 68 1018.0
20200406131504 54 322 5.0 8.0 0.00 0.00 0.00 68 1018.0
20200406131004 54 356 11.0 8.0 0.00 0.00 0.00 69 1018.0
20200406130004 53 351 1.0 6.0 0.00 0.00 0.00 71 1018.0
20200406125504 53 339 3.0 6.0 0.00 0.00 0.00 73 1018.1
20200406125004 52 351 3.0 6.0 0.00 0.00 0.00 72 1018.0
20200406124504 52 346 7.0 8.0 0.00 0.00 0.00 72 1018.0
20200406124004 52 352 5.0 8.0 0.00 0.00 0.00 75 1017.9
20200406123005 52 0 3.0 6.0 0.00 0.00 0.00 77 1017.9
20200406122504 52 0 5.0 6.0 0.00 0.00 0.00 78 1017.8
20200406122154 52 356 5.0 3.0 0.00 0.00 0.00 79 1017.7
20200406121503 51 358 5.0 6.0 0.00 0.00 0.00 79 1017.7
20200406121004 51 0 2.0 8.0 0.00 0.00 0.00 80 1017.7
20200406120504 51 350 0.0 0.0 0.00 0.00 0.00 81 1017.7
20200406115004 51 356 0.0 0.0 0.00 0.00 0.00 84 1017.6
20200406114504 51 351 0.0 0.0 0.00 0.00 0.00 85 1017.6
20200406114004 51 343 0.0 0.0 0.00 0.00 0.00 85 1017.7
20200406113503 51 343 0.0 0.0 0.00 0.00 0.00 86 1017.6
20200406113004 51 349 0.0 0.0 0.00 0.00 0.00 86 1017.5
20200406111503 51 343 0.0 0.0 0.00 0.00 0.00 87 1017.3
20200406110503 51 343 0.0 0.0 0.00 0.00 0.00 87 1017.2
20200406110004 51 344 0.0 0.0 0.00 0.00 0.00 87 1017.0
20200406105504 51 352 0.0 0.0 0.00 0.00 0.00 88 1016.8
20200406105004 51 352 0.0 0.0 0.00 0.00 0.00 89 1016.8
20200406104503 51 350 0.0 0.0 0.00 0.00 0.00 89 1016.7
20200406103504 51 350 0.0 0.0 0.00 0.00 0.00 90 1016.6
20200406103004 51 350 0.0 0.0 0.00 0.00 0.00 90 1016.7
20200406102003 51 289 0.0 0.0 0.00 0.00 0.00 90 1016.6
20200406101504 50 289 0.0 0.0 0.00 0.00 0.00 90 1016.4
20200406101003 51 289 0.0 0.0 0.00 0.00 0.00 89 1016.4
20200406100503 51 289 0.0 0.0 0.00 0.00 0.00 90 1016.3
20200406100004 51 289 0.0 0.0 0.00 0.00 0.00 89 1016.2
20200406095003 51 289 0.0 0.0 0.00 0.00 0.00 89 1016.0
20200406094003 51 289 0.0 0.0 0.00 0.00 0.00 89 1015.8
20200406092503 52 289 0.0 0.0 0.00 0.00 0.00 89 1015.7
20200406091503 52 289 0.0 0.0 0.00 0.00 0.00 88 1015.6
20200406091004 52 289 0.0 0.0 0.00 0.00 0.00 88 1015.6
20200406090503 52 289 0.0 0.0 0.00 0.00 0.00 88 1015.5
20200406085003 52 289 0.0 0.0 0.00 0.00 0.00 88 1015.5
20200406084723 52 289 0.0 0.0 0.00 0.00 0.00 88 1015.5
20200406083503 53 289 0.0 0.0 0.00 0.00 0.00 86 1015.4
20200406083004 53 289 0.0 0.0 0.00 0.00 0.00 85 1015.4
20200406082503 54 289 0.0 0.0 0.00 0.00 0.00 84 1015.4
20200406081503 55 289 0.0 0.0 0.00 0.00 0.00 82 1015.4
20200406080503 55 289 0.0 0.0 0.00 0.00 0.00 83 1015.5
20200406075003 55 289 0.0 0.0 0.00 0.00 0.00 84 1015.6
20200406074504 55 289 0.0 0.0 0.00 0.00 0.00 83 1015.5
20200406074004 55 289 0.0 0.0 0.00 0.00 0.00 83 1015.5
20200406073005 55 289 0.0 0.0 0.00 0.00 0.00 84 1015.6
20200406072003 55 289 0.0 0.0 0.00 0.00 0.00 84 1015.6
20200406071503 55 289 0.0 0.0 0.00 0.00 0.00 84 1015.6
20200406071004 56 289 0.0 0.0 0.00 0.00 0.00 83 1015.6
20200406070005 56 289 0.0 0.0 0.00 0.00 0.00 83 1015.5
20200406065503 56 289 0.0 0.0 0.00 0.00 0.00 83 1015.5
20200406065004 56 289 0.0 0.0 0.00 0.00 0.00 81 1015.5
20200406064532 57 279 0.0 0.0 0.00 0.00 0.00 81 1015.5
20200406064004 56 279 0.0 0.0 0.00 0.00 0.00 81 1015.5
20200406062504 57 279 0.0 0.0 0.00 0.00 0.00 81 1015.6
20200406062004 57 279 0.0 0.0 0.00 0.00 0.00 81 1015.6
20200406061505 57 279 0.0 0.0 0.00 0.00 0.00 81 1015.6
20200406061004 57 291 0.0 0.0 0.00 0.00 0.00 81 1015.6
20200406060503 57 291 0.0 0.0 0.00 0.00 0.00 81 1015.6
20200406060005 57 291 0.0 0.0 0.00 0.00 0.00 81 1015.7
20200406055503 57 273 0.0 0.0 0.00 0.00 0.00 81 1015.6
20200406055004 57 273 0.0 0.0 0.00 0.00 0.00 81 1015.7
20200406054004 57 267 0.0 0.0 0.00 0.00 0.00 82 1015.6
20200406053504 56 270 0.0 0.0 0.00 0.00 0.00 83 1015.6
20200406051004 55 198 0.0 0.0 0.00 0.00 0.00 85 1015.7
20200406045504 55 198 0.0 0.0 0.00 0.00 0.00 84 1015.7
20200406045004 55 198 0.0 0.0 0.00 0.00 0.00 84 1015.7
20200406044504 55 198 0.0 0.0 0.00 0.00 0.00 83 1015.8
20200406043504 54 198 0.0 0.0 0.00 0.00 0.00 83 1015.7
20200406042004 54 198 0.0 0.0 0.00 0.00 0.00 83 1015.7
20200406041504 55 198 0.0 0.0 0.00 0.00 0.00 81 1015.8
20200406041004 55 198 0.0 0.0 0.00 0.00 0.00 81 1015.8
20200406040503 55 198 0.0 0.0 0.00 0.00 0.00 80 1015.8
20200406040004 55 198 0.0 0.0 0.00 0.00 0.00 79 1015.7
20200406035004 56 198 0.0 0.0 0.00 0.00 0.00 78 1015.7
20200406034503 56 198 0.0 0.0 0.00 0.00 0.00 78 1015.6
20200406034005 56 198 0.0 0.0 0.00 0.00 0.00 78 1015.6
20200406033503 56 198 0.0 0.0 0.00 0.00 0.00 79 1015.6
20200406033004 56 198 0.0 0.0 0.00 0.00 0.00 79 1015.5
20200406032504 56 198 0.0 0.0 0.00 0.00 0.00 80 1015.5
20200406031004 56 198 0.0 0.0 0.00 0.00 0.00 81 1015.6
20200406025504 56 198 0.0 0.0 0.00 0.00 0.00 82 1015.9
20200406025004 56 198 0.0 0.0 0.00 0.00 0.00 82 1016.0
20200406023504 57 198 0.0 0.0 0.00 0.00 0.00 75 1016.1
20200406023004 57 198 0.0 0.0 0.00 0.00 0.00 74 1016.1
20200406021504 58 198 0.0 0.0 0.00 0.00 0.00 72 1016.0
20200406021004 58 198 0.0 0.0 0.00 0.00 0.00 71 1016.1
20200406020004 58 198 0.0 0.0 0.00 0.00 0.00 71 1016.0
20200406015503 58 198 0.0 0.0 0.00 0.00 0.00 71 1015.9
20200406013503 59 198 0.0 0.0 0.00 0.00 0.00 70 1015.8
20200406013005 59 198 0.0 0.0 0.00 0.00 0.00 69 1015.8
20200406012504 60 198 0.0 0.0 0.00 0.00 0.00 69 1015.8
20200406011004 60 198 0.0 0.0 0.00 0.00 0.00 68 1015.7
20200406010503 60 198 0.0 0.0 0.00 0.00 0.00 70 1015.6
20200406010003 60 198 0.0 0.0 0.00 0.00 0.00 69 1015.6
20200406005503 60 198 0.0 0.0 0.00 0.00 0.00 68 1015.6
20200406004503 61 198 0.0 0.0 0.00 0.00 0.00 67 1015.4
20200406004003 61 198 0.0 0.0 0.00 0.00 0.00 66 1015.4
20200406002504 61 198 0.0 0.0 0.00 0.00 0.00 65 1015.5
20200406002003 61 198 0.0 0.0 0.00 0.00 0.00 65 1015.5
20200406001004 61 198 0.0 0.0 0.00 0.00 0.00 66 1015.5
20200406000504 61 198 0.0 0.0 0.00 0.00 0.00 67 1015.5
20200406000003 61 198 0.0 0.0 0.00 0.00 0.00 65 1015.4
20200405235503 61 198 0.0 0.0 0.00 0.00 0.00 64 1015.3
20200405235003 61 198 0.0 0.0 0.00 0.00 0.00 67 1015.2
20200405234505 61 198 0.0 0.0 0.00 0.00 0.00 66 1015.2
20200405234004 62 198 0.0 0.0 0.00 0.00 0.00 63 1015.3
20200405233004 63 198 0.0 0.0 0.00 0.00 0.00 62 1015.3
20200405232504 63 198 0.0 0.0 0.00 0.00 0.00 61 1015.2
20200405232003 63 198 0.0 0.0 0.00 0.00 0.00 61 1015.2
20200405231504 63 198 0.0 0.0 0.00 0.00 0.00 60 1015.2
20200405230504 63 198 0.0 0.0 0.00 0.00 0.00 60 1015.3
20200405230005 64 198 0.0 0.0 0.00 0.00 0.00 60 1015.3
20200405225503 64 198 0.0 0.0 0.00 0.00 0.00 59 1015.3
20200405224504 65 198 0.0 0.0 0.00 0.00 0.00 57 1015.4
20200405223503 65 198 0.0 0.0 0.00 0.00 0.00 58 1015.3
20200405221504 65 198 0.0 0.0 0.00 0.00 0.00 56 1015.2
20200405221003 65 198 0.0 2.0 0.00 0.00 0.00 56 1015.2
20200405220005 66 198 0.0 2.0 0.00 0.00 0.00 55 1015.1
20200405215503 66 198 1.0 2.0 0.00 0.00 0.00 55 1015.0
20200405215004 66 174 0.0 0.0 0.00 0.00 0.00 54 1015.1
20200405214003 66 196 2.0 6.0 0.00 0.00 0.00 54 1015.1
20200405213505 66 181 0.0 0.0 0.00 0.00 0.00 55 1015.1
20200405213005 66 181 1.0 2.0 0.00 0.00 0.00 55 1015.2
20200405211504 66 186 0.0 2.0 0.00 0.00 0.00 54 1015.2
20200405210504 66 174 1.0 3.0 0.00 0.00 0.00 56 1015.2
20200405210005 66 284 1.0 3.0 0.00 0.00 0.00 54 1015.2
20200405205005 66 143 0.0 0.0 0.00 0.00 0.00 55 1015.1
20200405204004 66 136 0.0 0.0 0.00 0.00 0.00 55 1015.3
20200405203006 65 184 0.0 0.0 0.00 0.00 0.00 56 1015.4
20200405202503 65 152 0.0 0.0 0.00 0.00 0.00 56 1015.5
20200405202004 65 196 0.0 0.0 0.00 0.00 0.00 56 1015.6
20200405201504 65 196 0.0 2.0 0.00 0.00 0.00 55 1015.5
20200405200006 65 249 1.0 2.0 0.00 0.00 0.00 56 1015.6
20200405194004 66 179 5.0 6.0 0.00 0.00 0.00 54 1015.6
20200405193504 66 176 0.0 3.0 0.00 0.00 0.00 56 1015.6
20200405192003 66 341 1.0 6.0 0.00 0.00 0.00 54 1015.8
20200405191004 65 166 2.0 8.0 0.00 0.00 0.00 56 1016.0
20200405190504 65 184 0.0 8.0 0.00 0.00 0.00 58 1016.1
20200405190006 65 158 2.0 6.0 0.00 0.00 0.00 58 1016.1
20200405185503 65 203 1.0 3.0 0.00 0.00 0.00 58 1016.3
20200405185003 64 171 2.0 8.0 0.00 0.00 0.00 59 1016.4
20200405184003 65 175 2.0 3.0 0.00 0.00 0.00 58 1016.5
20200405183504 65 181 2.0 8.0 0.00 0.00 0.00 57 1016.5
20200405183004 64 219 0.0 0.0 0.00 0.00 0.00 56 1016.5
20200405182504 64 270 2.0 3.0 0.00 0.00 0.00 58 1016.6
20200405182005 63 192 2.0 8.0 0.00 0.00 0.00 57 1016.7
20200405181504 64 223 4.0 6.0 0.00 0.00 0.00 58 1016.6
20200405181004 64 275 0.0 0.0 0.00 0.00 0.00 57 1016.7
20200405180504 64 199 2.0 6.0 0.00 0.00 0.00 56 1016.8
20200405180006 64 238 1.0 8.0 0.00 0.00 0.00 57 1016.9
20200405175004 64 185 0.0 2.0 0.00 0.00 0.00 58 1017.0
20200405174504 64 295 1.0 8.0 0.00 0.00 0.00 60 1017.0
20200405174005 63 242 2.0 3.0 0.00 0.00 0.00 60 1017.2
20200405173004 62 258 1.0 12.0 0.00 0.00 0.00 59 1017.4
20200405172504 62 292 8.0 10.0 0.00 0.00 0.00 61 1017.4
20200405172004 62 213 2.0 8.0 0.00 0.00 0.00 60 1017.4
20200405171504 62 169 0.0 3.0 0.00 0.00 0.00 61 1017.4
20200405170504 62 204 3.0 6.0 0.00 0.00 0.00 62 1017.5
20200405170005 62 175 1.0 8.0 0.00 0.00 0.00 62 1017.5
20200405165504 62 180 2.0 8.0 0.00 0.00 0.00 60 1017.5
20200405164504 62 143 2.0 6.0 0.00 0.00 0.00 63 1017.6
20200405164004 62 132 4.0 12.0 0.00 0.00 0.00 64 1017.7
20200405163505 61 165 2.0 10.0 0.00 0.00 0.00 64 1017.7